sensor_id;sensor_type;location;lat;lon;timestamp;P1;durP1;ratioP1;P2;durP2;ratioP2
20894;SDS011;10607;42.066;24.742;2023-05-29T00:02:05;15.50;;;5.63;;
20894;SDS011;10607;42.066;24.742;2023-05-29T00:04:31;9.27;;;4.63;;
20894;SDS011;10607;42.066;24.742;2023-05-29T00:06:56;9.52;;;4.53;;
20894;SDS011;10607;42.066;24.742;2023-05-29T00:09:21;8.73;;;4.47;;
20894;SDS011;10607;42.066;24.742;2023-05-29T00:11:46;10.18;;;4.90;;
20894;SDS011;10607;42.066;24.742;2023-05-29T00:14:15;12.13;;;4.65;;
20894;SDS011;10607;42.066;24.742;2023-05-29T00:16:44;8.40;;;4.28;;
20894;SDS011;10607;42.066;24.742;2023-05-29T00:19:09;11.02;;;5.07;;
20894;SDS011;10607;42.066;24.742;2023-05-29T00:21:34;6.22;;;4.32;;
20894;SDS011;10607;42.066;24.742;2023-05-29T00:24:00;10.95;;;4.65;;
20894;SDS011;10607;42.066;24.742;2023-05-29T00:26:25;8.13;;;4.10;;
20894;SDS011;10607;42.066;24.742;2023-05-29T00:28:51;9.23;;;4.65;;
20894;SDS011;10607;42.066;24.742;2023-05-29T00:31:16;10.38;;;5.47;;
20894;SDS011;10607;42.066;24.742;2023-05-29T00:33:41;7.07;;;4.57;;
20894;SDS011;10607;42.066;24.742;2023-05-29T00:36:07;12.23;;;4.65;;
20894;SDS011;10607;42.066;24.742;2023-05-29T00:38:32;13.88;;;4.72;;
20894;SDS011;10607;42.066;24.742;2023-05-29T00:40:58;9.23;;;4.65;;
20894;SDS011;10607;42.066;24.742;2023-05-29T00:43:24;7.22;;;3.55;;
20894;SDS011;10607;42.066;24.742;2023-05-29T00:45:49;8.60;;;4.13;;
20894;SDS011;10607;42.066;24.742;2023-05-29T00:48:15;5.32;;;3.88;;
20894;SDS011;10607;42.066;24.742;2023-05-29T00:50:40;6.85;;;3.45;;
20894;SDS011;10607;42.066;24.742;2023-05-29T00:53:06;10.52;;;3.63;;
20894;SDS011;10607;42.066;24.742;2023-05-29T00:55:33;8.75;;;3.50;;
20894;SDS011;10607;42.066;24.742;2023-05-29T00:57:59;6.93;;;3.55;;
20894;SDS011;10607;42.066;24.742;2023-05-29T01:00:24;5.55;;;3.42;;
20894;SDS011;10607;42.066;24.742;2023-05-29T01:02:49;7.68;;;3.60;;
20894;SDS011;10607;42.066;24.742;2023-05-29T01:05:17;5.22;;;3.38;;
20894;SDS011;10607;42.066;24.742;2023-05-29T01:07:44;6.40;;;3.03;;
20894;SDS011;10607;42.066;24.742;2023-05-29T01:10:10;6.40;;;2.90;;
20894;SDS011;10607;42.066;24.742;2023-05-29T01:18:22;9.38;;;2.72;;
20894;SDS011;10607;42.066;24.742;2023-05-29T01:25:34;4.70;;;3.40;;
20894;SDS011;10607;42.066;24.742;2023-05-29T01:28:01;7.05;;;3.20;;
20894;SDS011;10607;42.066;24.742;2023-05-29T01:30:28;5.75;;;3.08;;
20894;SDS011;10607;42.066;24.742;2023-05-29T01:32:53;4.57;;;2.67;;
20894;SDS011;10607;42.066;24.742;2023-05-29T01:35:19;7.53;;;3.10;;
20894;SDS011;10607;42.066;24.742;2023-05-29T01:37:45;4.38;;;3.00;;
20894;SDS011;10607;42.066;24.742;2023-05-29T01:40:10;6.22;;;3.05;;
20894;SDS011;10607;42.066;24.742;2023-05-29T01:42:35;8.80;;;3.30;;
20894;SDS011;10607;42.066;24.742;2023-05-29T01:45:01;7.75;;;3.70;;
20894;SDS011;10607;42.066;24.742;2023-05-29T01:47:27;4.88;;;3.08;;
20894;SDS011;10607;42.066;24.742;2023-05-29T01:49:52;9.77;;;3.95;;
20894;SDS011;10607;42.066;24.742;2023-05-29T01:52:18;12.05;;;3.58;;
20894;SDS011;10607;42.066;24.742;2023-05-29T01:54:43;5.38;;;3.20;;
20894;SDS011;10607;42.066;24.742;2023-05-29T01:57:09;5.68;;;3.53;;
20894;SDS011;10607;42.066;24.742;2023-05-29T01:59:35;5.43;;;3.13;;
20894;SDS011;10607;42.066;24.742;2023-05-29T02:02:05;4.30;;;3.40;;
20894;SDS011;10607;42.066;24.742;2023-05-29T02:04:31;6.60;;;3.25;;
20894;SDS011;10607;42.066;24.742;2023-05-29T02:06:56;6.68;;;3.28;;
20894;SDS011;10607;42.066;24.742;2023-05-29T02:09:21;12.43;;;3.85;;
20894;SDS011;10607;42.066;24.742;2023-05-29T02:11:47;5.07;;;3.90;;
20894;SDS011;10607;42.066;24.742;2023-05-29T02:14:13;6.30;;;3.45;;
20894;SDS011;10607;42.066;24.742;2023-05-29T02:16:38;6.68;;;3.50;;
20894;SDS011;10607;42.066;24.742;2023-05-29T02:19:06;4.15;;;3.60;;
20894;SDS011;10607;42.066;24.742;2023-05-29T02:21:31;5.40;;;3.42;;
20894;SDS011;10607;42.066;24.742;2023-05-29T02:23:56;8.05;;;3.78;;
20894;SDS011;10607;42.066;24.742;2023-05-29T02:26:21;10.82;;;4.63;;
20894;SDS011;10607;42.066;24.742;2023-05-29T02:28:48;5.95;;;4.18;;
20894;SDS011;10607;42.066;24.742;2023-05-29T02:31:13;6.38;;;3.58;;
20894;SDS011;10607;42.066;24.742;2023-05-29T02:33:38;11.27;;;5.07;;
20894;SDS011;10607;42.066;24.742;2023-05-29T02:36:03;9.10;;;5.13;;
20894;SDS011;10607;42.066;24.742;2023-05-29T02:38:29;9.05;;;4.93;;
20894;SDS011;10607;42.066;24.742;2023-05-29T02:40:54;7.40;;;4.75;;
20894;SDS011;10607;42.066;24.742;2023-05-29T02:43:21;13.88;;;5.25;;
20894;SDS011;10607;42.066;24.742;2023-05-29T02:45:46;9.70;;;4.30;;
20894;SDS011;10607;42.066;24.742;2023-05-29T02:48:11;7.70;;;4.82;;
20894;SDS011;10607;42.066;24.742;2023-05-29T02:50:37;8.90;;;4.40;;
20894;SDS011;10607;42.066;24.742;2023-05-29T02:53:02;6.57;;;4.28;;
20894;SDS011;10607;42.066;24.742;2023-05-29T02:55:27;10.02;;;4.60;;
20894;SDS011;10607;42.066;24.742;2023-05-29T02:57:53;10.05;;;4.75;;
20894;SDS011;10607;42.066;24.742;2023-05-29T03:00:20;6.32;;;4.65;;
20894;SDS011;10607;42.066;24.742;2023-05-29T03:02:46;7.93;;;4.80;;
20894;SDS011;10607;42.066;24.742;2023-05-29T03:05:11;9.13;;;5.32;;
20894;SDS011;10607;42.066;24.742;2023-05-29T03:07:36;8.23;;;4.55;;
20894;SDS011;10607;42.066;24.742;2023-05-29T03:10:02;8.73;;;5.10;;
20894;SDS011;10607;42.066;24.742;2023-05-29T03:12:29;8.80;;;4.95;;
20894;SDS011;10607;42.066;24.742;2023-05-29T03:14:54;8.65;;;4.50;;
20894;SDS011;10607;42.066;24.742;2023-05-29T03:17:21;6.18;;;4.35;;
20894;SDS011;10607;42.066;24.742;2023-05-29T03:19:46;13.70;;;4.28;;
20894;SDS011;10607;42.066;24.742;2023-05-29T03:22:12;7.90;;;4.93;;
20894;SDS011;10607;42.066;24.742;2023-05-29T03:24:37;10.60;;;4.25;;
20894;SDS011;10607;42.066;24.742;2023-05-29T03:27:03;6.78;;;3.95;;
20894;SDS011;10607;42.066;24.742;2023-05-29T03:29:29;6.70;;;4.07;;
20894;SDS011;10607;42.066;24.742;2023-05-29T03:31:54;6.05;;;3.95;;
20894;SDS011;10607;42.066;24.742;2023-05-29T03:34:19;6.72;;;3.45;;
20894;SDS011;10607;42.066;24.742;2023-05-29T03:36:45;6.55;;;3.28;;
20894;SDS011;10607;42.066;24.742;2023-05-29T03:39:11;5.70;;;3.45;;
20894;SDS011;10607;42.066;24.742;2023-05-29T03:41:37;6.32;;;3.58;;
20894;SDS011;10607;42.066;24.742;2023-05-29T03:44:02;8.52;;;3.65;;
20894;SDS011;10607;42.066;24.742;2023-05-29T03:46:27;10.27;;;4.10;;
20894;SDS011;10607;42.066;24.742;2023-05-29T03:48:53;5.60;;;3.65;;
20894;SDS011;10607;42.066;24.742;2023-05-29T03:51:18;6.97;;;3.83;;
20894;SDS011;10607;42.066;24.742;2023-05-29T03:53:43;5.03;;;3.30;;
20894;SDS011;10607;42.066;24.742;2023-05-29T03:56:09;8.10;;;3.55;;
20894;SDS011;10607;42.066;24.742;2023-05-29T03:58:34;9.02;;;3.92;;
20894;SDS011;10607;42.066;24.742;2023-05-29T04:01:01;4.47;;;3.38;;
20894;SDS011;10607;42.066;24.742;2023-05-29T04:03:26;4.45;;;3.38;;
20894;SDS011;10607;42.066;24.742;2023-05-29T04:05:52;6.53;;;3.70;;
20894;SDS011;10607;42.066;24.742;2023-05-29T04:08:18;10.13;;;3.78;;
20894;SDS011;10607;42.066;24.742;2023-05-29T04:10:43;5.15;;;3.70;;
20894;SDS011;10607;42.066;24.742;2023-05-29T04:13:09;6.05;;;3.50;;
20894;SDS011;10607;42.066;24.742;2023-05-29T04:15:34;10.68;;;3.63;;
20894;SDS011;10607;42.066;24.742;2023-05-29T04:17:59;7.57;;;3.95;;
20894;SDS011;10607;42.066;24.742;2023-05-29T04:20:25;6.38;;;3.80;;
20894;SDS011;10607;42.066;24.742;2023-05-29T04:22:50;4.10;;;3.40;;
20894;SDS011;10607;42.066;24.742;2023-05-29T04:25:16;5.38;;;3.33;;
20894;SDS011;10607;42.066;24.742;2023-05-29T04:27:41;7.63;;;3.78;;
20894;SDS011;10607;42.066;24.742;2023-05-29T04:30:07;6.95;;;3.80;;
20894;SDS011;10607;42.066;24.742;2023-05-29T04:32:33;9.45;;;3.90;;
20894;SDS011;10607;42.066;24.742;2023-05-29T04:35:01;8.57;;;4.45;;
20894;SDS011;10607;42.066;24.742;2023-05-29T04:37:30;7.20;;;3.53;;
20894;SDS011;10607;42.066;24.742;2023-05-29T04:40:02;7.20;;;3.92;;
20894;SDS011;10607;42.066;24.742;2023-05-29T04:42:29;15.82;;;3.90;;
20894;SDS011;10607;42.066;24.742;2023-05-29T04:44:58;9.63;;;3.80;;
20894;SDS011;10607;42.066;24.742;2023-05-29T04:47:24;11.63;;;3.15;;
20894;SDS011;10607;42.066;24.742;2023-05-29T04:49:49;8.25;;;3.55;;
20894;SDS011;10607;42.066;24.742;2023-05-29T04:52:15;6.97;;;4.03;;
20894;SDS011;10607;42.066;24.742;2023-05-29T04:54:41;5.47;;;3.78;;
20894;SDS011;10607;42.066;24.742;2023-05-29T04:57:06;5.07;;;3.55;;
20894;SDS011;10607;42.066;24.742;2023-05-29T04:59:33;7.47;;;4.13;;
20894;SDS011;10607;42.066;24.742;2023-05-29T05:01:59;5.43;;;3.88;;
20894;SDS011;10607;42.066;24.742;2023-05-29T05:04:24;8.77;;;4.22;;
20894;SDS011;10607;42.066;24.742;2023-05-29T05:06:49;14.27;;;4.03;;
20894;SDS011;10607;42.066;24.742;2023-05-29T05:09:15;7.55;;;3.55;;
20894;SDS011;10607;42.066;24.742;2023-05-29T05:11:40;15.48;;;4.40;;
20894;SDS011;10607;42.066;24.742;2023-05-29T05:14:05;7.47;;;4.20;;
20894;SDS011;10607;42.066;24.742;2023-05-29T05:16:30;8.10;;;3.95;;
20894;SDS011;10607;42.066;24.742;2023-05-29T05:18:58;7.50;;;4.18;;
20894;SDS011;10607;42.066;24.742;2023-05-29T05:21:23;15.25;;;4.40;;
20894;SDS011;10607;42.066;24.742;2023-05-29T05:23:48;8.48;;;4.28;;
20894;SDS011;10607;42.066;24.742;2023-05-29T05:26:13;14.23;;;4.38;;
20894;SDS011;10607;42.066;24.742;2023-05-29T05:28:39;9.57;;;4.30;;
20894;SDS011;10607;42.066;24.742;2023-05-29T05:31:04;9.15;;;4.97;;
20894;SDS011;10607;42.066;24.742;2023-05-29T05:33:29;11.88;;;4.57;;
20894;SDS011;10607;42.066;24.742;2023-05-29T05:35:55;6.68;;;4.30;;
20894;SDS011;10607;42.066;24.742;2023-05-29T05:38:20;11.90;;;5.32;;
20894;SDS011;10607;42.066;24.742;2023-05-29T05:40:46;16.73;;;7.30;;
20894;SDS011;10607;42.066;24.742;2023-05-29T05:43:11;14.95;;;4.78;;
20894;SDS011;10607;42.066;24.742;2023-05-29T05:45:36;8.30;;;4.53;;
20894;SDS011;10607;42.066;24.742;2023-05-29T05:48:07;10.63;;;5.10;;
20894;SDS011;10607;42.066;24.742;2023-05-29T05:50:32;8.93;;;5.35;;
20894;SDS011;10607;42.066;24.742;2023-05-29T05:52:57;16.48;;;5.55;;
20894;SDS011;10607;42.066;24.742;2023-05-29T05:55:23;14.65;;;5.63;;
20894;SDS011;10607;42.066;24.742;2023-05-29T05:57:48;8.43;;;5.30;;
20894;SDS011;10607;42.066;24.742;2023-05-29T06:00:13;13.55;;;5.00;;
20894;SDS011;10607;42.066;24.742;2023-05-29T06:02:39;10.48;;;4.28;;
20894;SDS011;10607;42.066;24.742;2023-05-29T06:05:09;7.05;;;5.05;;
20894;SDS011;10607;42.066;24.742;2023-05-29T06:07:34;10.20;;;5.38;;
20894;SDS011;10607;42.066;24.742;2023-05-29T06:10:00;14.93;;;4.85;;
20894;SDS011;10607;42.066;24.742;2023-05-29T06:12:26;11.88;;;5.15;;
20894;SDS011;10607;42.066;24.742;2023-05-29T06:14:51;8.40;;;4.38;;
20894;SDS011;10607;42.066;24.742;2023-05-29T06:17:16;8.13;;;4.82;;
20894;SDS011;10607;42.066;24.742;2023-05-29T06:19:41;7.53;;;5.28;;
20894;SDS011;10607;42.066;24.742;2023-05-29T06:22:07;16.42;;;5.60;;
20894;SDS011;10607;42.066;24.742;2023-05-29T06:24:32;13.88;;;6.65;;
20894;SDS011;10607;42.066;24.742;2023-05-29T06:26:57;13.35;;;6.45;;
20894;SDS011;10607;42.066;24.742;2023-05-29T06:29:23;12.13;;;5.05;;
20894;SDS011;10607;42.066;24.742;2023-05-29T06:31:48;15.93;;;4.47;;
20894;SDS011;10607;42.066;24.742;2023-05-29T06:34:13;20.85;;;5.28;;
20894;SDS011;10607;42.066;24.742;2023-05-29T06:36:38;8.95;;;4.55;;
20894;SDS011;10607;42.066;24.742;2023-05-29T06:39:05;8.63;;;4.20;;
20894;SDS011;10607;42.066;24.742;2023-05-29T06:41:30;8.18;;;4.05;;
20894;SDS011;10607;42.066;24.742;2023-05-29T06:43:55;6.72;;;3.53;;
20894;SDS011;10607;42.066;24.742;2023-05-29T06:46:21;10.23;;;4.25;;
20894;SDS011;10607;42.066;24.742;2023-05-29T06:48:46;8.65;;;4.72;;
20894;SDS011;10607;42.066;24.742;2023-05-29T06:51:11;13.05;;;4.63;;
20894;SDS011;10607;42.066;24.742;2023-05-29T06:53:40;8.50;;;4.40;;
20894;SDS011;10607;42.066;24.742;2023-05-29T06:56:06;22.90;;;5.68;;
20894;SDS011;10607;42.066;24.742;2023-05-29T06:58:31;15.02;;;4.45;;
20894;SDS011;10607;42.066;24.742;2023-05-29T07:00:57;9.80;;;4.60;;
20894;SDS011;10607;42.066;24.742;2023-05-29T07:03:23;11.98;;;5.45;;
20894;SDS011;10607;42.066;24.742;2023-05-29T07:05:48;10.68;;;3.90;;
20894;SDS011;10607;42.066;24.742;2023-05-29T07:08:14;7.03;;;4.22;;
20894;SDS011;10607;42.066;24.742;2023-05-29T07:10:39;10.45;;;3.83;;
20894;SDS011;10607;42.066;24.742;2023-05-29T07:13:05;7.95;;;4.38;;
20894;SDS011;10607;42.066;24.742;2023-05-29T07:15:31;8.80;;;3.72;;
20894;SDS011;10607;42.066;24.742;2023-05-29T07:17:56;8.13;;;4.32;;
20894;SDS011;10607;42.066;24.742;2023-05-29T07:20:22;13.50;;;4.38;;
20894;SDS011;10607;42.066;24.742;2023-05-29T07:22:47;8.50;;;5.55;;
20894;SDS011;10607;42.066;24.742;2023-05-29T07:25:12;14.90;;;5.05;;
20894;SDS011;10607;42.066;24.742;2023-05-29T07:27:38;16.30;;;5.05;;
20894;SDS011;10607;42.066;24.742;2023-05-29T07:30:03;12.45;;;5.53;;
20894;SDS011;10607;42.066;24.742;2023-05-29T07:32:30;13.10;;;4.68;;
20894;SDS011;10607;42.066;24.742;2023-05-29T07:34:56;9.32;;;4.82;;
20894;SDS011;10607;42.066;24.742;2023-05-29T07:37:21;11.73;;;4.40;;
20894;SDS011;10607;42.066;24.742;2023-05-29T07:39:46;8.30;;;4.97;;
20894;SDS011;10607;42.066;24.742;2023-05-29T07:42:12;9.93;;;4.60;;
20894;SDS011;10607;42.066;24.742;2023-05-29T07:44:37;7.82;;;4.20;;
20894;SDS011;10607;42.066;24.742;2023-05-29T07:47:03;11.35;;;4.20;;
20894;SDS011;10607;42.066;24.742;2023-05-29T07:49:28;10.18;;;4.60;;
20894;SDS011;10607;42.066;24.742;2023-05-29T07:51:53;11.43;;;4.30;;
20894;SDS011;10607;42.066;24.742;2023-05-29T07:54:18;13.63;;;5.00;;
20894;SDS011;10607;42.066;24.742;2023-05-29T07:56:45;7.78;;;4.10;;
20894;SDS011;10607;42.066;24.742;2023-05-29T07:59:11;8.68;;;3.42;;
20894;SDS011;10607;42.066;24.742;2023-05-29T08:01:37;24.50;;;6.68;;
20894;SDS011;10607;42.066;24.742;2023-05-29T08:04:02;5.88;;;3.78;;
20894;SDS011;10607;42.066;24.742;2023-05-29T08:06:27;8.70;;;3.88;;
20894;SDS011;10607;42.066;24.742;2023-05-29T08:08:53;6.35;;;3.70;;
20894;SDS011;10607;42.066;24.742;2023-05-29T08:11:19;13.90;;;6.68;;
20894;SDS011;10607;42.066;24.742;2023-05-29T08:13:44;9.98;;;4.40;;
20894;SDS011;10607;42.066;24.742;2023-05-29T08:16:10;19.13;;;8.60;;
20894;SDS011;10607;42.066;24.742;2023-05-29T08:18:35;16.42;;;5.38;;
20894;SDS011;10607;42.066;24.742;2023-05-29T08:21:01;8.40;;;3.53;;
20894;SDS011;10607;42.066;24.742;2023-05-29T08:23:27;11.65;;;3.20;;
20894;SDS011;10607;42.066;24.742;2023-05-29T08:25:52;11.30;;;3.42;;
20894;SDS011;10607;42.066;24.742;2023-05-29T08:28:17;10.75;;;3.90;;
20894;SDS011;10607;42.066;24.742;2023-05-29T08:30:42;10.20;;;3.90;;
20894;SDS011;10607;42.066;24.742;2023-05-29T08:33:08;8.43;;;3.08;;
20894;SDS011;10607;42.066;24.742;2023-05-29T08:35:33;6.80;;;3.65;;
20894;SDS011;10607;42.066;24.742;2023-05-29T08:37:59;7.00;;;3.70;;
20894;SDS011;10607;42.066;24.742;2023-05-29T08:40:24;12.38;;;3.63;;
20894;SDS011;10607;42.066;24.742;2023-05-29T08:43:23;10.60;;;3.50;;
20894;SDS011;10607;42.066;24.742;2023-05-29T08:45:42;4.85;;;3.30;;
20894;SDS011;10607;42.066;24.742;2023-05-29T08:48:09;4.20;;;2.75;;
20894;SDS011;10607;42.066;24.742;2023-05-29T08:50:35;9.20;;;3.35;;
20894;SDS011;10607;42.066;24.742;2023-05-29T08:53:00;5.30;;;3.28;;
20894;SDS011;10607;42.066;24.742;2023-05-29T08:55:25;4.55;;;3.58;;
20894;SDS011;10607;42.066;24.742;2023-05-29T08:57:51;3.28;;;2.65;;
20894;SDS011;10607;42.066;24.742;2023-05-29T09:00:16;6.00;;;2.80;;
20894;SDS011;10607;42.066;24.742;2023-05-29T09:02:43;8.85;;;3.17;;
20894;SDS011;10607;42.066;24.742;2023-05-29T09:05:09;12.13;;;3.00;;
20894;SDS011;10607;42.066;24.742;2023-05-29T09:07:35;12.27;;;3.78;;
20894;SDS011;10607;42.066;24.742;2023-05-29T09:10:03;7.25;;;2.90;;
20894;SDS011;10607;42.066;24.742;2023-05-29T09:12:30;6.13;;;3.05;;
20894;SDS011;10607;42.066;24.742;2023-05-29T09:14:56;4.32;;;2.95;;
20894;SDS011;10607;42.066;24.742;2023-05-29T09:17:21;8.80;;;3.13;;
20894;SDS011;10607;42.066;24.742;2023-05-29T09:19:47;5.15;;;2.60;;
20894;SDS011;10607;42.066;24.742;2023-05-29T09:22:13;9.45;;;3.03;;
20894;SDS011;10607;42.066;24.742;2023-05-29T09:24:40;4.40;;;2.75;;
20894;SDS011;10607;42.066;24.742;2023-05-29T09:27:05;3.95;;;2.70;;
20894;SDS011;10607;42.066;24.742;2023-05-29T09:29:39;5.38;;;2.55;;
20894;SDS011;10607;42.066;24.742;2023-05-29T09:32:12;4.82;;;2.30;;
20894;SDS011;10607;42.066;24.742;2023-05-29T09:34:37;5.75;;;3.17;;
20894;SDS011;10607;42.066;24.742;2023-05-29T09:37:04;4.30;;;2.97;;
20894;SDS011;10607;42.066;24.742;2023-05-29T09:39:33;6.13;;;2.85;;
20894;SDS011;10607;42.066;24.742;2023-05-29T09:41:59;6.55;;;3.03;;
20894;SDS011;10607;42.066;24.742;2023-05-29T09:44:24;5.40;;;3.03;;
20894;SDS011;10607;42.066;24.742;2023-05-29T09:46:56;6.53;;;3.10;;
20894;SDS011;10607;42.066;24.742;2023-05-29T09:49:22;3.67;;;2.90;;
20894;SDS011;10607;42.066;24.742;2023-05-29T09:51:48;5.05;;;2.95;;
20894;SDS011;10607;42.066;24.742;2023-05-29T09:54:14;5.43;;;2.67;;
20894;SDS011;10607;42.066;24.742;2023-05-29T09:56:41;5.28;;;3.13;;
20894;SDS011;10607;42.066;24.742;2023-05-29T09:59:09;4.63;;;2.80;;
20894;SDS011;10607;42.066;24.742;2023-05-29T10:01:35;3.72;;;2.67;;
20894;SDS011;10607;42.066;24.742;2023-05-29T10:04:00;6.63;;;2.90;;
20894;SDS011;10607;42.066;24.742;2023-05-29T10:06:27;4.65;;;3.17;;
20894;SDS011;10607;42.066;24.742;2023-05-29T10:08:54;5.25;;;3.03;;
20894;SDS011;10607;42.066;24.742;2023-05-29T10:11:21;5.43;;;3.22;;
20894;SDS011;10607;42.066;24.742;2023-05-29T10:13:51;9.20;;;2.65;;
20894;SDS011;10607;42.066;24.742;2023-05-29T10:16:18;6.32;;;2.72;;
20894;SDS011;10607;42.066;24.742;2023-05-29T10:18:47;7.10;;;3.13;;
20894;SDS011;10607;42.066;24.742;2023-05-29T10:21:15;9.82;;;3.38;;
20894;SDS011;10607;42.066;24.742;2023-05-29T10:23:43;15.48;;;3.55;;
20894;SDS011;10607;42.066;24.742;2023-05-29T10:28:46;7.70;;;3.47;;
20894;SDS011;10607;42.066;24.742;2023-05-29T10:31:17;7.72;;;3.10;;
20894;SDS011;10607;42.066;24.742;2023-05-29T10:36:30;6.10;;;3.60;;
20894;SDS011;10607;42.066;24.742;2023-05-29T10:38:59;7.82;;;2.70;;
20894;SDS011;10607;42.066;24.742;2023-05-29T10:43:57;8.80;;;3.55;;
20894;SDS011;10607;42.066;24.742;2023-05-29T10:49:06;13.60;;;2.88;;
20894;SDS011;10607;42.066;24.742;2023-05-29T10:51:40;6.20;;;2.88;;
20894;SDS011;10607;42.066;24.742;2023-05-29T10:54:05;6.43;;;2.30;;
20894;SDS011;10607;42.066;24.742;2023-05-29T10:56:31;4.55;;;2.22;;
20894;SDS011;10607;42.066;24.742;2023-05-29T10:58:57;6.10;;;2.22;;
20894;SDS011;10607;42.066;24.742;2023-05-29T11:01:23;6.28;;;2.13;;
20894;SDS011;10607;42.066;24.742;2023-05-29T11:03:49;6.90;;;1.77;;
20894;SDS011;10607;42.066;24.742;2023-05-29T11:06:18;3.42;;;2.00;;
20894;SDS011;10607;42.066;24.742;2023-05-29T11:08:47;3.72;;;2.03;;
20894;SDS011;10607;42.066;24.742;2023-05-29T11:11:13;3.30;;;1.90;;
20894;SDS011;10607;42.066;24.742;2023-05-29T11:13:38;5.00;;;2.10;;
20894;SDS011;10607;42.066;24.742;2023-05-29T11:18:31;5.70;;;2.58;;
20894;SDS011;10607;42.066;24.742;2023-05-29T11:21:00;7.28;;;2.72;;
20894;SDS011;10607;42.066;24.742;2023-05-29T11:23:29;14.10;;;3.10;;
20894;SDS011;10607;42.066;24.742;2023-05-29T11:25:56;2.70;;;2.30;;
20894;SDS011;10607;42.066;24.742;2023-05-29T11:28:22;6.57;;;2.67;;
20894;SDS011;10607;42.066;24.742;2023-05-29T11:30:47;4.75;;;2.65;;
20894;SDS011;10607;42.066;24.742;2023-05-29T11:33:23;7.55;;;2.38;;
20894;SDS011;10607;42.066;24.742;2023-05-29T11:35:50;3.70;;;2.47;;
20894;SDS011;10607;42.066;24.742;2023-05-29T11:38:18;7.97;;;2.90;;
20894;SDS011;10607;42.066;24.742;2023-05-29T11:40:44;9.25;;;2.67;;
20894;SDS011;10607;42.066;24.742;2023-05-29T11:43:11;6.88;;;2.35;;
20894;SDS011;10607;42.066;24.742;2023-05-29T11:45:37;6.22;;;2.65;;
20894;SDS011;10607;42.066;24.742;2023-05-29T11:48:02;6.55;;;2.30;;
20894;SDS011;10607;42.066;24.742;2023-05-29T11:50:28;5.28;;;2.75;;
20894;SDS011;10607;42.066;24.742;2023-05-29T11:52:55;7.75;;;2.50;;
20894;SDS011;10607;42.066;24.742;2023-05-29T11:55:21;8.98;;;2.30;;
20894;SDS011;10607;42.066;24.742;2023-05-29T11:57:56;3.53;;;2.20;;
20894;SDS011;10607;42.066;24.742;2023-05-29T12:00:22;7.63;;;2.33;;
20894;SDS011;10607;42.066;24.742;2023-05-29T12:02:49;4.32;;;2.60;;
20894;SDS011;10607;42.066;24.742;2023-05-29T12:05:15;3.25;;;2.35;;
20894;SDS011;10607;42.066;24.742;2023-05-29T12:07:48;3.40;;;2.28;;
20894;SDS011;10607;42.066;24.742;2023-05-29T12:10:15;3.70;;;2.60;;
20894;SDS011;10607;42.066;24.742;2023-05-29T12:12:40;7.18;;;2.85;;
20894;SDS011;10607;42.066;24.742;2023-05-29T12:15:06;6.63;;;2.55;;
20894;SDS011;10607;42.066;24.742;2023-05-29T12:17:32;7.38;;;2.47;;
20894;SDS011;10607;42.066;24.742;2023-05-29T12:19:58;4.15;;;2.33;;
20894;SDS011;10607;42.066;24.742;2023-05-29T12:22:36;4.15;;;2.38;;
20894;SDS011;10607;42.066;24.742;2023-05-29T12:25:11;7.38;;;2.85;;
20894;SDS011;10607;42.066;24.742;2023-05-29T12:27:37;7.28;;;2.70;;
20894;SDS011;10607;42.066;24.742;2023-05-29T12:30:08;4.22;;;2.70;;
20894;SDS011;10607;42.066;24.742;2023-05-29T12:32:34;9.60;;;2.47;;
20894;SDS011;10607;42.066;24.742;2023-05-29T12:35:00;3.95;;;2.40;;
20894;SDS011;10607;42.066;24.742;2023-05-29T12:37:25;4.85;;;3.05;;
20894;SDS011;10607;42.066;24.742;2023-05-29T12:42:37;5.68;;;3.03;;
20894;SDS011;10607;42.066;24.742;2023-05-29T12:45:02;7.45;;;3.10;;
20894;SDS011;10607;42.066;24.742;2023-05-29T12:47:31;7.35;;;2.90;;
20894;SDS011;10607;42.066;24.742;2023-05-29T12:49:57;6.75;;;2.92;;
20894;SDS011;10607;42.066;24.742;2023-05-29T12:52:23;4.25;;;3.08;;
20894;SDS011;10607;42.066;24.742;2023-05-29T12:54:48;5.30;;;3.15;;
20894;SDS011;10607;42.066;24.742;2023-05-29T12:57:13;4.18;;;2.90;;
20894;SDS011;10607;42.066;24.742;2023-05-29T12:59:39;8.52;;;3.00;;
20894;SDS011;10607;42.066;24.742;2023-05-29T13:02:05;5.38;;;3.33;;
20894;SDS011;10607;42.066;24.742;2023-05-29T13:04:33;6.03;;;3.13;;
20894;SDS011;10607;42.066;24.742;2023-05-29T13:06:58;5.97;;;3.17;;
20894;SDS011;10607;42.066;24.742;2023-05-29T13:09:24;6.82;;;3.28;;
20894;SDS011;10607;42.066;24.742;2023-05-29T13:11:49;12.35;;;4.22;;
20894;SDS011;10607;42.066;24.742;2023-05-29T13:14:14;6.30;;;3.20;;
20894;SDS011;10607;42.066;24.742;2023-05-29T13:16:40;6.38;;;3.10;;
20894;SDS011;10607;42.066;24.742;2023-05-29T13:19:05;8.73;;;3.10;;
20894;SDS011;10607;42.066;24.742;2023-05-29T13:21:31;11.45;;;3.53;;
20894;SDS011;10607;42.066;24.742;2023-05-29T13:23:57;5.72;;;3.30;;
20894;SDS011;10607;42.066;24.742;2023-05-29T13:26:22;6.38;;;3.10;;
20894;SDS011;10607;42.066;24.742;2023-05-29T13:28:48;6.43;;;3.58;;
20894;SDS011;10607;42.066;24.742;2023-05-29T13:31:13;6.85;;;2.63;;
20894;SDS011;10607;42.066;24.742;2023-05-29T13:33:38;5.18;;;2.92;;
20894;SDS011;10607;42.066;24.742;2023-05-29T13:36:04;11.38;;;3.70;;
20894;SDS011;10607;42.066;24.742;2023-05-29T13:38:30;7.10;;;2.65;;
20894;SDS011;10607;42.066;24.742;2023-05-29T13:40:55;11.77;;;2.65;;
20894;SDS011;10607;42.066;24.742;2023-05-29T13:43:20;5.20;;;2.47;;
20894;SDS011;10607;42.066;24.742;2023-05-29T13:45:46;4.50;;;2.50;;
20894;SDS011;10607;42.066;24.742;2023-05-29T13:48:11;7.60;;;2.55;;
20894;SDS011;10607;42.066;24.742;2023-05-29T13:50:36;4.03;;;2.30;;
20894;SDS011;10607;42.066;24.742;2023-05-29T13:53:02;7.18;;;2.45;;
20894;SDS011;10607;42.066;24.742;2023-05-29T13:55:27;6.40;;;2.25;;
20894;SDS011;10607;42.066;24.742;2023-05-29T13:57:52;5.95;;;2.63;;
20894;SDS011;10607;42.066;24.742;2023-05-29T14:00:18;7.28;;;2.95;;
20894;SDS011;10607;42.066;24.742;2023-05-29T14:02:43;7.60;;;2.80;;
20894;SDS011;10607;42.066;24.742;2023-05-29T14:05:08;7.85;;;3.17;;
20894;SDS011;10607;42.066;24.742;2023-05-29T14:07:35;5.70;;;2.88;;
20894;SDS011;10607;42.066;24.742;2023-05-29T14:10:01;5.78;;;2.80;;
20894;SDS011;10607;42.066;24.742;2023-05-29T14:12:26;3.58;;;2.65;;
20894;SDS011;10607;42.066;24.742;2023-05-29T14:14:51;5.18;;;2.90;;
20894;SDS011;10607;42.066;24.742;2023-05-29T14:17:17;9.38;;;2.80;;
20894;SDS011;10607;42.066;24.742;2023-05-29T14:19:42;10.50;;;2.88;;
20894;SDS011;10607;42.066;24.742;2023-05-29T14:22:10;4.43;;;2.28;;
20894;SDS011;10607;42.066;24.742;2023-05-29T14:24:35;4.00;;;2.42;;
20894;SDS011;10607;42.066;24.742;2023-05-29T14:27:01;3.78;;;2.65;;
20894;SDS011;10607;42.066;24.742;2023-05-29T14:29:27;6.43;;;2.95;;
20894;SDS011;10607;42.066;24.742;2023-05-29T14:31:52;6.70;;;2.80;;
20894;SDS011;10607;42.066;24.742;2023-05-29T14:34:17;7.65;;;2.60;;
20894;SDS011;10607;42.066;24.742;2023-05-29T14:36:43;8.90;;;2.92;;
20894;SDS011;10607;42.066;24.742;2023-05-29T14:39:09;4.72;;;2.65;;
20894;SDS011;10607;42.066;24.742;2023-05-29T14:41:35;6.70;;;3.45;;
20894;SDS011;10607;42.066;24.742;2023-05-29T14:44:00;7.88;;;3.88;;
20894;SDS011;10607;42.066;24.742;2023-05-29T14:46:26;9.30;;;3.90;;
20894;SDS011;10607;42.066;24.742;2023-05-29T14:48:53;11.10;;;3.45;;
20894;SDS011;10607;42.066;24.742;2023-05-29T14:51:19;7.47;;;4.03;;